This is the latest recevied weather packets stored in our database for station/object KJ6LNH-1. If no packets are shown the sender has not sent any weather packets the latest 10 day(s).
| Time | Temp. | Humidity | Pressure | Rain* | Wind** | Luminosity | Snow |
|---|---|---|---|---|---|---|---|
| 1787966406 | 22.78° C | 44% | 1012.6 hPa | 0 mm | - | - | - |
| 1787965806 | 22.78° C | 44% | 1012.7 hPa | 0 mm | - | - | - |
| 1787965506 | 22.78° C | 44% | 1012.8 hPa | 0 mm | - | - | - |
| 1787965206 | 23.33° C | 42% | 1012.9 hPa | 0 mm | - | - | - |
| 1787964606 | 23.89° C | 38% | 1013.1 hPa | 0 mm | - | - | - |
| 1787964306 | 23.89° C | 38% | 1012.9 hPa | 0 mm | - | - | - |
| 1787964005 | 23.89° C | 37% | 1012.9 hPa | 0 mm | - | - | - |
| 1787963707 | 23.89° C | 37% | 1012.9 hPa | 0 mm | - | - | - |
| 1787963405 | 23.89° C | 38% | 1012.8 hPa | 0 mm | - | - | - |
| 1787963106 | 23.89° C | 39% | 1012.8 hPa | 0 mm | - | - | - |
| 1787962805 | 23.89° C | 42% | 1012.8 hPa | 0 mm | - | - | - |
| 1787962507 | 23.89° C | 42% | 1012.8 hPa | 0 mm | - | - | - |
| 1787962205 | 23.89° C | 42% | 1012.8 hPa | 0 mm | - | - | - |
| 1787961607 | 23.89° C | 48% | 1012.7 hPa | 0 mm | - | - | - |
| 1787961305 | 23.89° C | 49% | 1012.8 hPa | 0 mm | - | - | - |
| 1787961006 | 23.33° C | 51% | 1012.8 hPa | 0 mm | - | - | - |
| 1787960705 | 23.89° C | 50% | 1012.8 hPa | 0 mm | - | - | - |
| 1787960406 | 23.89° C | 49% | 1012.9 hPa | 0 mm | - | - | - |
| 1787960105 | 23.89° C | 48% | 1013 hPa | 0 mm | - | - | - |
| 1787959807 | 24.44° C | 46% | 1013.1 hPa | 0 mm | - | - | - |
| 1787959505 | 24.44° C | 46% | 1013 hPa | 0 mm | - | - | - |
| 1787959207 | 25° C | 45% | 1013.1 hPa | 0 mm | - | - | - |
| 1787958907 | 25.56° C | 44% | 1013.1 hPa | 0 mm | - | - | - |
| 1787958638 | 26.11° C | 42% | 1013.1 hPa | 0 mm | - | - | - |
| 1787958606 | 26.11° C | 42% | 1013.1 hPa | 0 mm | - | - | - |
* Rain latest hour (hover to see other rain measurements)
** Current wind speed in m/s (hover to see current wind gust speed)